Terminal Aerodrome Forecast
Issued by NWS

Home | Current Version | Previous Version | Graphics & Text | Print | Product List | Glossary On
Versions: 1 2 3 4 5 6 7 8 9 10 11 12 13 14 15 16 17 18
000
FTUS43 KMPX 241900 AAA
TAFAXN
TAF AMD
KAXN 241947Z 2420/2518 06006KT P6SM SCT015 BKN040
     FM242200 VRB03KT P6SM VCSH SCT020 BKN050
     FM250200 34006KT P6SM FEW050
     FM250600 26004KT 5SM BR SCT010
      TEMPO 2508/2512 2SM BR BKN010
     FM251300 29009KT P6SM BKN070=

USA.gov is the U.S. government's official web portal to all federal, state and local government web resources and services.